DLHGF5 EDDS-EDDF
Flight info
| Callsign | DLHGF5 |
|---|---|
| Flight time | N/A |
| Altitude | 20000 |
| Route | ETASA4B ETASA T163 SPESA SPESA4B |
| Aircraft | A21N/M-SDE2E3FGHIRWXY/LB1 |
Departure
| Time | 2026-05-05 17:18 |
|---|---|
| Airport | Stuttgart Airport (EDDS) |
Arrival
| Time | N/A |
|---|---|
| Airport | Frankfurt Main Airport (EDDF) |
| Time | Latitude | Longitude | Altitude | Speed | Heading |
|---|---|---|---|---|---|
| 2026-05-05 16:48 | 48.68970 | 9.19841 | 1291 ft | 0 kts | 345° |
| 2026-05-05 16:59 | 48.68957 | 9.19845 | 1291 ft | 2 kts | 338° |
| 2026-05-05 16:59 | 48.68936 | 9.19855 | 1291 ft | 4 kts | 300° |
| 2026-05-05 16:59 | 48.68928 | 9.19894 | 1291 ft | 4 kts | 240° |
| 2026-05-05 17:00 | 48.68940 | 9.19931 | 1291 ft | 4 kts | 245° |
| 2026-05-05 17:00 | 48.68944 | 9.19947 | 1291 ft | 0 kts | 239° |
| 2026-05-05 17:02 | 48.68922 | 9.19897 | 1291 ft | 10 kts | 229° |
| 2026-05-05 17:02 | 48.68858 | 9.19881 | 1291 ft | 10 kts | 167° |
| 2026-05-05 17:02 | 48.68797 | 9.19944 | 1291 ft | 12 kts | 137° |
| 2026-05-05 17:03 | 48.68762 | 9.20058 | 1291 ft | 13 kts | 91° |
| 2026-05-05 17:03 | 48.68786 | 9.20199 | 1291 ft | 15 kts | 73° |
| 2026-05-05 17:03 | 48.68817 | 9.20361 | 1291 ft | 17 kts | 75° |
| 2026-05-05 17:03 | 48.68848 | 9.20543 | 1291 ft | 19 kts | 74° |
| 2026-05-05 17:04 | 48.68887 | 9.20742 | 1291 ft | 20 kts | 73° |
| 2026-05-05 17:04 | 48.68930 | 9.20956 | 1291 ft | 22 kts | 73° |
| 2026-05-05 17:04 | 48.68972 | 9.21185 | 1291 ft | 23 kts | 74° |
| 2026-05-05 17:04 | 48.69017 | 9.21427 | 1291 ft | 24 kts | 73° |
| 2026-05-05 17:05 | 48.69066 | 9.21678 | 1291 ft | 25 kts | 73° |
| 2026-05-05 17:05 | 48.69114 | 9.21937 | 1291 ft | 26 kts | 74° |
| 2026-05-05 17:05 | 48.69167 | 9.22208 | 1291 ft | 27 kts | 73° |
| 2026-05-05 17:05 | 48.69220 | 9.22489 | 1291 ft | 30 kts | 73° |
| 2026-05-05 17:06 | 48.69283 | 9.22819 | 1291 ft | 34 kts | 73° |
| 2026-05-05 17:06 | 48.69345 | 9.23158 | 1291 ft | 33 kts | 74° |
| 2026-05-05 17:06 | 48.69410 | 9.23492 | 1291 ft | 33 kts | 75° |
| 2026-05-05 17:06 | 48.69474 | 9.23829 | 1291 ft | 33 kts | 74° |
| 2026-05-05 17:07 | 48.69523 | 9.24086 | 1291 ft | 6 kts | 73° |
| 2026-05-05 17:07 | 48.69541 | 9.24248 | 1291 ft | 20 kts | 98° |
| 2026-05-05 17:07 | 48.69487 | 9.24319 | 1291 ft | 12 kts | 158° |
| 2026-05-05 17:07 | 48.69405 | 9.24284 | 1291 ft | 14 kts | 221° |
| 2026-05-05 17:08 | 48.69334 | 9.24026 | 1291 ft | 61 kts | 253° |
| 2026-05-05 17:08 | 48.69120 | 9.22914 | 1296 ft | 157 kts | 254° |
| 2026-05-05 17:08 | 48.68833 | 9.21354 | 1291 ft | 109 kts | 253° |
| 2026-05-05 17:08 | 48.68724 | 9.20800 | 1291 ft | 35 kts | 253° |
| 2026-05-05 17:09 | 48.68679 | 9.20438 | 1291 ft | 28 kts | 269° |
| 2026-05-05 17:09 | 48.68698 | 9.20231 | 1291 ft | 0 kts | 281° |
| 2026-05-05 17:09 | 48.68709 | 9.20155 | 1291 ft | 0 kts | 283° |
| 2026-05-05 17:09 | 48.68709 | 9.20154 | 1291 ft | 1 kts | 283° |
| 2026-05-05 17:10 | 48.68723 | 9.20091 | 1291 ft | 11 kts | 292° |
| 2026-05-05 17:10 | 48.68775 | 9.19992 | 1291 ft | 12 kts | 328° |
| 2026-05-05 17:10 | 48.68834 | 9.20037 | 1291 ft | 10 kts | 60° |
| 2026-05-05 17:10 | 48.68864 | 9.20180 | 1291 ft | 20 kts | 73° |
| 2026-05-05 17:11 | 48.68904 | 9.20396 | 1291 ft | 22 kts | 75° |
| 2026-05-05 17:11 | 48.68948 | 9.20629 | 1291 ft | 24 kts | 73° |
| 2026-05-05 17:11 | 48.68991 | 9.20875 | 1291 ft | 25 kts | 76° |
| 2026-05-05 17:11 | 48.69044 | 9.21124 | 1291 ft | 25 kts | 73° |
| 2026-05-05 17:12 | 48.69092 | 9.21385 | 1291 ft | 26 kts | 75° |
| 2026-05-05 17:12 | 48.69144 | 9.21654 | 1291 ft | 27 kts | 73° |
| 2026-05-05 17:12 | 48.69196 | 9.21932 | 1291 ft | 28 kts | 73° |
| 2026-05-05 17:12 | 48.69251 | 9.22218 | 1291 ft | 30 kts | 73° |
| 2026-05-05 17:13 | 48.69315 | 9.22546 | 1291 ft | 33 kts | 73° |
| 2026-05-05 17:13 | 48.69377 | 9.22881 | 1291 ft | 33 kts | 75° |
| 2026-05-05 17:13 | 48.69441 | 9.23218 | 1291 ft | 33 kts | 71° |
| 2026-05-05 17:13 | 48.69507 | 9.23553 | 1291 ft | 33 kts | 75° |
| 2026-05-05 17:14 | 48.69569 | 9.23888 | 1291 ft | 33 kts | 73° |
| 2026-05-05 17:14 | 48.69603 | 9.24168 | 1291 ft | 18 kts | 105° |
| 2026-05-05 17:14 | 48.69589 | 9.24212 | 1291 ft | 9 kts | 115° |
| 2026-05-05 17:14 | 48.69563 | 9.24268 | 1291 ft | 7 kts | 132° |
| 2026-05-05 17:15 | 48.69552 | 9.24282 | 1291 ft | 0 kts | 143° |
| 2026-05-05 17:15 | 48.69528 | 9.24298 | 1291 ft | 9 kts | 156° |
| 2026-05-05 17:16 | 48.69504 | 9.24311 | 1291 ft | 1 kts | 160° |
| 2026-05-05 17:16 | 48.69497 | 9.24314 | 1291 ft | 0 kts | 160° |
| 2026-05-05 17:16 | 48.69494 | 9.24316 | 1291 ft | 0 kts | 160° |
| 2026-05-05 17:16 | 48.69492 | 9.24317 | 1291 ft | 3 kts | 162° |
| 2026-05-05 17:17 | 48.69417 | 9.24321 | 1291 ft | 10 kts | 200° |
| 2026-05-05 17:17 | 48.69382 | 9.24264 | 1291 ft | 0 kts | 247° |
| 2026-05-05 17:17 | 48.69381 | 9.24258 | 1291 ft | 2 kts | 249° |
| 2026-05-05 17:17 | 48.69367 | 9.24192 | 1291 ft | 34 kts | 252° |
| 2026-05-05 17:18 | 48.69202 | 9.23320 | 1291 ft | 137 kts | 254° |
| 2026-05-05 17:18 | 48.68886 | 9.21656 | 1787 ft | 174 kts | 254° |
| 2026-05-05 17:18 | 48.68532 | 9.19858 | 2845 ft | 182 kts | 253° |
| 2026-05-05 17:18 | 48.68159 | 9.17998 | 3894 ft | 186 kts | 253° |
| 2026-05-05 17:19 | 48.67746 | 9.16081 | 4552 ft | 209 kts | 251° |
| 2026-05-05 17:19 | 48.67271 | 9.13809 | 4580 ft | 239 kts | 253° |
| 2026-05-05 17:19 | 48.66805 | 9.11347 | 4558 ft | 244 kts | 255° |
| 2026-05-05 17:19 | 48.66747 | 9.08814 | 4322 ft | 242 kts | 282° |
| 2026-05-05 17:20 | 48.67481 | 9.06570 | 4070 ft | 244 kts | 311° |
| 2026-05-05 17:20 | 48.68870 | 9.05165 | 4159 ft | 249 kts | 341° |
| 2026-05-05 17:20 | 48.70591 | 9.04902 | 4864 ft | 250 kts | 359° |
| 2026-05-05 17:20 | 48.72317 | 9.04765 | 5840 ft | 249 kts | 360° |
| 2026-05-05 17:21 | 48.74053 | 9.05109 | 6577 ft | 255 kts | 9° |
| 2026-05-05 17:21 | 48.75812 | 9.05582 | 7149 ft | 259 kts | 10° |
| 2026-05-05 17:21 | 48.77578 | 9.06067 | 8083 ft | 258 kts | 10° |
| 2026-05-05 17:22 | 48.81167 | 9.07022 | 8885 ft | 263 kts | 9° |
| 2026-05-05 17:22 | 48.82975 | 9.07489 | 8989 ft | 264 kts | 9° |
| 2026-05-05 17:22 | 48.84789 | 9.07956 | 9036 ft | 266 kts | 9° |
| 2026-05-05 17:22 | 48.86627 | 9.08427 | 9563 ft | 268 kts | 9° |
| 2026-05-05 17:23 | 48.88515 | 9.08914 | 10094 ft | 286 kts | 9° |
| 2026-05-05 17:23 | 48.90526 | 9.09435 | 10397 ft | 309 kts | 9° |
| 2026-05-05 17:23 | 48.92720 | 9.10006 | 10646 ft | 331 kts | 9° |
| 2026-05-05 17:23 | 48.95065 | 9.10617 | 10956 ft | 349 kts | 9° |
| 2026-05-05 17:24 | 48.97479 | 9.11248 | 11624 ft | 354 kts | 9° |
| 2026-05-05 17:24 | 48.99916 | 9.11885 | 12313 ft | 358 kts | 9° |
| 2026-05-05 17:24 | 49.02382 | 9.12529 | 12997 ft | 361 kts | 9° |
| 2026-05-05 17:24 | 49.04868 | 9.13178 | 13677 ft | 364 kts | 9° |
| 2026-05-05 17:25 | 49.07382 | 9.13835 | 14321 ft | 368 kts | 9° |
| 2026-05-05 17:25 | 49.09061 | 9.14274 | 14742 ft | 370 kts | 9° |
| 2026-05-05 17:25 | 49.12480 | 9.15171 | 15577 ft | 375 kts | 9° |
| 2026-05-05 17:25 | 49.15063 | 9.15849 | 16176 ft | 378 kts | 9° |
| 2026-05-05 17:26 | 49.17668 | 9.16533 | 16788 ft | 382 kts | 9° |
| 2026-05-05 17:26 | 49.20298 | 9.17225 | 17384 ft | 385 kts | 9° |
| 2026-05-05 17:26 | 49.22916 | 9.17914 | 17958 ft | 389 kts | 9° |
| 2026-05-05 17:26 | 49.25595 | 9.18621 | 18554 ft | 392 kts | 9° |
| 2026-05-05 17:27 | 49.28294 | 9.19333 | 19118 ft | 396 kts | 9° |
| 2026-05-05 17:27 | 49.31021 | 9.20054 | 19661 ft | 400 kts | 9° |
| 2026-05-05 17:27 | 49.33737 | 9.20773 | 19917 ft | 401 kts | 9° |
| 2026-05-05 17:27 | 49.36492 | 9.21503 | 19995 ft | 402 kts | 9° |
| 2026-05-05 17:28 | 49.39251 | 9.22235 | 20000 ft | 402 kts | 9° |
| 2026-05-05 17:28 | 49.42006 | 9.22967 | 19997 ft | 402 kts | 9° |
| 2026-05-05 17:28 | 49.44728 | 9.23691 | 20001 ft | 402 kts | 9° |
| 2026-05-05 17:28 | 49.47468 | 9.24420 | 20000 ft | 403 kts | 9° |
| 2026-05-05 17:29 | 49.50226 | 9.25151 | 20001 ft | 403 kts | 9° |
| 2026-05-05 17:29 | 49.52990 | 9.25884 | 20003 ft | 403 kts | 9° |
| 2026-05-05 17:29 | 49.55751 | 9.26621 | 20003 ft | 403 kts | 9° |
| 2026-05-05 17:29 | 49.58508 | 9.27358 | 20003 ft | 402 kts | 9° |
| 2026-05-05 17:30 | 49.61267 | 9.28097 | 19998 ft | 403 kts | 9° |
| 2026-05-05 17:30 | 49.64028 | 9.28838 | 19998 ft | 402 kts | 9° |
| 2026-05-05 17:30 | 49.66749 | 9.29570 | 20000 ft | 387 kts | 9° |
| 2026-05-05 17:30 | 49.69309 | 9.30260 | 19998 ft | 363 kts | 9° |
| 2026-05-05 17:31 | 49.71771 | 9.30923 | 19999 ft | 361 kts | 9° |
| 2026-05-05 17:31 | 49.74266 | 9.31596 | 20002 ft | 364 kts | 9° |
| 2026-05-05 17:31 | 49.76750 | 9.32266 | 19860 ft | 360 kts | 9° |
| 2026-05-05 17:31 | 49.79210 | 9.32930 | 19384 ft | 359 kts | 9° |
| 2026-05-05 17:32 | 49.81630 | 9.33564 | 18796 ft | 355 kts | 7° |
| 2026-05-05 17:32 | 49.84073 | 9.33415 | 18098 ft | 352 kts | 347° |
| 2026-05-05 17:32 | 49.86310 | 9.31984 | 17460 ft | 347 kts | 327° |
| 2026-05-05 17:32 | 49.88059 | 9.29460 | 16816 ft | 343 kts | 305° |
| 2026-05-05 17:33 | 49.89124 | 9.26277 | 16527 ft | 322 kts | 294° |
| 2026-05-05 17:33 | 49.90026 | 9.23156 | 15874 ft | 313 kts | 294° |
| 2026-05-05 17:33 | 49.90930 | 9.20117 | 15093 ft | 309 kts | 295° |
| 2026-05-05 17:33 | 49.91820 | 9.17219 | 14324 ft | 305 kts | 295° |
| 2026-05-05 17:34 | 49.92728 | 9.14328 | 13985 ft | 287 kts | 296° |
| 2026-05-05 17:34 | 49.93564 | 9.11687 | 13691 ft | 268 kts | 296° |
| 2026-05-05 17:34 | 49.94378 | 9.09118 | 13058 ft | 264 kts | 296° |
| 2026-05-05 17:34 | 49.95183 | 9.06576 | 12396 ft | 261 kts | 296° |
| 2026-05-05 17:35 | 49.95968 | 9.04065 | 12113 ft | 262 kts | 295° |
| 2026-05-05 17:35 | 49.96766 | 9.01510 | 12013 ft | 262 kts | 295° |
| 2026-05-05 17:35 | 49.97569 | 8.98973 | 11996 ft | 260 kts | 298° |
| 2026-05-05 17:35 | 49.98714 | 8.96937 | 12004 ft | 262 kts | 323° |
| 2026-05-05 17:36 | 50.00190 | 8.95267 | 12001 ft | 262 kts | 323° |
| 2026-05-05 17:36 | 50.01662 | 8.93602 | 12000 ft | 262 kts | 323° |
| 2026-05-05 17:36 | 50.03127 | 8.91945 | 11916 ft | 259 kts | 323° |
| 2026-05-05 17:36 | 50.04583 | 8.90296 | 11577 ft | 258 kts | 323° |
| 2026-05-05 17:37 | 50.06029 | 8.88659 | 11086 ft | 256 kts | 323° |
| 2026-05-05 17:37 | 50.06982 | 8.87581 | 10726 ft | 255 kts | 323° |
| 2026-05-05 17:37 | 50.08879 | 8.85432 | 10015 ft | 253 kts | 323° |
| 2026-05-05 17:37 | 50.10302 | 8.83847 | 9457 ft | 251 kts | 327° |
| 2026-05-05 17:38 | 50.11923 | 8.82876 | 8909 ft | 249 kts | 344° |
| 2026-05-05 17:38 | 50.13585 | 8.82135 | 8376 ft | 248 kts | 343° |
| 2026-05-05 17:38 | 50.15235 | 8.81398 | 7870 ft | 246 kts | 343° |
| 2026-05-05 17:38 | 50.16324 | 8.80911 | 7535 ft | 245 kts | 343° |
| 2026-05-05 17:39 | 50.17949 | 8.80185 | 7134 ft | 240 kts | 343° |
| 2026-05-05 17:39 | 50.19616 | 8.79921 | 7019 ft | 245 kts | 7° |
| 2026-05-05 17:39 | 50.21178 | 8.80912 | 6997 ft | 245 kts | 37° |
| 2026-05-05 17:39 | 50.22246 | 8.82952 | 6998 ft | 246 kts | 65° |
| 2026-05-05 17:40 | 50.22769 | 8.85492 | 6995 ft | 246 kts | 74° |
| 2026-05-05 17:40 | 50.23252 | 8.88056 | 6998 ft | 246 kts | 73° |
| 2026-05-05 17:40 | 50.23735 | 8.90620 | 6997 ft | 246 kts | 73° |
| 2026-05-05 17:40 | 50.24217 | 8.93182 | 7001 ft | 246 kts | 73° |
| 2026-05-05 17:41 | 50.24699 | 8.95750 | 6998 ft | 246 kts | 73° |
| 2026-05-05 17:41 | 50.25177 | 8.98316 | 6997 ft | 246 kts | 75° |
| 2026-05-05 17:41 | 50.25249 | 9.00962 | 6995 ft | 246 kts | 102° |
| 2026-05-05 17:41 | 50.24508 | 9.03341 | 7012 ft | 246 kts | 131° |
| 2026-05-05 17:42 | 50.23135 | 9.04864 | 6955 ft | 242 kts | 159° |
| 2026-05-05 17:42 | 50.21497 | 9.05190 | 6576 ft | 239 kts | 188° |
| 2026-05-05 17:42 | 50.19995 | 9.04258 | 6026 ft | 237 kts | 217° |
| 2026-05-05 17:42 | 50.18782 | 9.02537 | 5468 ft | 235 kts | 224° |
| 2026-05-05 17:43 | 50.17593 | 9.00800 | 5239 ft | 237 kts | 224° |
| 2026-05-05 17:43 | 50.16391 | 8.99046 | 5165 ft | 236 kts | 224° |
| 2026-05-05 17:43 | 50.15294 | 8.97157 | 5166 ft | 236 kts | 236° |
| 2026-05-05 17:43 | 50.15002 | 8.96426 | 5180 ft | 235 kts | 241° |